createdAt,value
2022-12-17T00:01:00.506Z,23.95
2022-12-17T00:06:50.431Z,23.58
2022-12-17T00:12:40.373Z,23.88
2022-12-17T00:18:30.127Z,24.67
2022-12-17T00:24:19.911Z,24.60
2022-12-17T00:30:20.405Z,21.75
2022-12-17T00:36:12.022Z,21.45
2022-12-17T00:42:01.710Z,22.88
2022-12-17T00:47:51.973Z,20.88
2022-12-17T00:53:42.333Z,21.85
2022-12-17T00:59:32.545Z,20.88
2022-12-17T01:05:23.071Z,21.35
2022-12-17T01:11:20.824Z,21.30
2022-12-17T01:17:10.704Z,19.40
2022-12-17T01:23:00.741Z,21.00
2022-12-17T01:28:50.321Z,20.60
2022-12-17T01:34:40.034Z,20.38
2022-12-17T01:40:30.042Z,20.00
2022-12-17T01:46:22.020Z,20.23
2022-12-17T01:52:12.543Z,19.30
2022-12-17T01:58:02.497Z,19.00
2022-12-17T02:03:52.359Z,18.67
2022-12-17T02:10:01.326Z,18.88
2022-12-17T02:16:05.444Z,17.95
2022-12-17T02:21:58.372Z,19.40
2022-12-17T02:27:49.102Z,18.45
2022-12-17T02:33:39.422Z,17.95
2022-12-17T02:39:29.192Z,17.50
2022-12-17T02:45:19.592Z,16.95
2022-12-17T02:51:11.276Z,18.42
2022-12-17T02:57:02.198Z,16.73
2022-12-17T03:02:52.228Z,16.60
2022-12-17T03:08:42.026Z,17.05
2022-12-17T03:14:31.957Z,16.27
2022-12-17T03:20:22.423Z,16.23
2022-12-17T03:26:12.241Z,18.60
2022-12-17T03:32:01.683Z,16.63
2022-12-17T03:37:51.902Z,14.85
2022-12-17T03:43:42.057Z,15.75
2022-12-17T03:49:31.799Z,15.07
2022-12-17T03:55:21.591Z,15.93
2022-12-17T04:01:11.431Z,15.10
2022-12-17T04:07:01.568Z,15.43
2022-12-17T04:12:51.777Z,14.25
2022-12-17T04:18:41.537Z,15.05
2022-12-17T04:24:31.490Z,14.75
2022-12-17T04:30:21.318Z,14.55
2022-12-17T04:36:11.137Z,14.13
2022-12-17T04:42:01.288Z,14.25
2022-12-17T04:47:50.735Z,14.32
2022-12-17T04:53:41.069Z,13.25
2022-12-17T04:59:30.994Z,13.73
2022-12-17T05:05:21.011Z,13.68
2022-12-17T05:11:11.055Z,14.32
2022-12-17T05:17:00.626Z,12.77
2022-12-17T05:22:53.912Z,12.95
2022-12-17T05:28:43.593Z,20.13
2022-12-17T05:34:33.677Z,17.63
2022-12-17T05:40:24.606Z,16.85
2022-12-17T05:46:19.021Z,17.75
2022-12-17T05:52:08.771Z,18.63
2022-12-17T05:57:59.062Z,17.20
2022-12-17T06:03:49.037Z,17.77
2022-12-17T06:09:38.987Z,16.02
2022-12-17T06:15:28.951Z,16.55
2022-12-17T06:21:18.800Z,14.77
2022-12-17T06:27:09.091Z,15.55
2022-12-17T06:32:58.926Z,16.10
2022-12-17T06:38:48.992Z,14.10
2022-12-17T06:44:39.052Z,15.45
2022-12-17T06:50:28.966Z,12.55
2022-12-17T06:56:19.104Z,14.27
2022-12-17T07:02:08.952Z,13.52
2022-12-17T07:07:58.950Z,12.45
2022-12-17T07:13:48.851Z,14.02
2022-12-17T07:19:38.746Z,12.27
2022-12-17T07:25:46.408Z,12.25
2022-12-17T07:31:36.449Z,13.85
2022-12-17T07:37:26.533Z,12.23
2022-12-17T07:43:16.569Z,12.30
2022-12-17T07:49:06.472Z,11.85
2022-12-17T07:54:56.486Z,11.82
2022-12-17T08:00:49.474Z,11.60
2022-12-17T08:06:39.382Z,10.13
2022-12-17T08:12:29.615Z,10.50
2022-12-17T08:18:26.097Z,11.75
2022-12-17T08:24:16.634Z,11.70
2022-12-17T08:30:06.796Z,11.60
2022-12-17T08:35:56.741Z,11.27
2022-12-17T08:41:52.627Z,10.73
2022-12-17T08:47:44.211Z,11.20
2022-12-17T08:53:35.224Z,11.20
2022-12-17T08:59:25.419Z,10.95
2022-12-17T09:05:15.432Z,10.48
2022-12-17T09:11:10.792Z,10.55
2022-12-17T09:17:00.942Z,8.98
2022-12-17T09:22:50.792Z,10.65
2022-12-17T09:28:40.818Z,9.90
2022-12-17T09:34:30.869Z,9.68
2022-12-17T09:40:21.010Z,9.18
2022-12-17T09:46:41.070Z,9.77
2022-12-17T09:52:42.296Z,8.82
2022-12-17T09:58:42.242Z,9.23
2022-12-17T10:04:40.698Z,9.25
2022-12-17T10:10:45.566Z,8.95
2022-12-17T10:16:47.325Z,8.82
2022-12-17T10:22:39.635Z,8.68
2022-12-17T10:28:35.203Z,8.73
2022-12-17T10:34:33.869Z,7.78
2022-12-17T10:40:34.032Z,8.23
2022-12-17T10:46:23.849Z,8.35
2022-12-17T10:52:23.495Z,8.90
2022-12-17T10:58:13.424Z,7.70
2022-12-17T11:04:09.504Z,8.43
2022-12-17T11:10:09.596Z,7.47
2022-12-17T11:16:03.691Z,7.47
2022-12-17T11:22:02.245Z,7.20
2022-12-17T11:27:54.646Z,7.50
2022-12-17T11:33:54.646Z,7.68
2022-12-17T11:40:01.436Z,7.00
2022-12-17T11:46:07.521Z,6.95
2022-12-17T11:52:04.025Z,6.88
2022-12-17T11:58:20.365Z,6.20
2022-12-17T12:04:28.387Z,6.82
2022-12-17T12:10:58.926Z,6.35
2022-12-17T12:16:57.997Z,7.15
2022-12-17T12:22:59.384Z,6.65
2022-12-17T12:29:24.880Z,6.80
2022-12-17T12:35:15.272Z,6.43
2022-12-17T12:41:17.847Z,6.03
2022-12-17T12:47:27.387Z,6.10
2022-12-17T12:53:17.813Z,6.03
2022-12-17T12:59:08.117Z,6.03
2022-12-17T13:04:57.919Z,5.55
2022-12-17T13:10:32.980Z,5.03
2022-12-17T13:16:43.700Z,6.70
2022-12-17T13:22:20.261Z,4.80
2022-12-17T13:27:55.003Z,5.10
2022-12-17T13:33:40.280Z,5.65
2022-12-17T13:39:30.102Z,6.00
2022-12-17T13:45:03.176Z,5.22
2022-12-17T13:50:35.897Z,5.47
2022-12-17T13:56:07.521Z,4.97
2022-12-17T14:01:49.878Z,5.43
2022-12-17T14:07:22.017Z,6.07
2022-12-17T14:13:13.446Z,5.65
2022-12-17T14:18:51.946Z,5.53
2022-12-17T14:24:27.331Z,5.60
2022-12-17T14:29:58.335Z,5.35
2022-12-17T14:35:32.472Z,5.30
2022-12-17T14:41:31.591Z,5.07
2022-12-17T14:47:20.417Z,5.05
2022-12-17T14:52:53.776Z,4.72
2022-12-17T14:58:26.655Z,5.70
2022-12-17T15:03:58.077Z,4.57
2022-12-17T15:09:29.464Z,5.03
2022-12-17T15:15:01.418Z,5.30
2022-12-17T15:20:32.599Z,5.10
2022-12-17T15:26:04.180Z,4.72
2022-12-17T15:31:35.764Z,4.35
2022-12-17T15:37:07.453Z,4.82
2022-12-17T15:43:02.938Z,5.07
2022-12-17T15:48:37.900Z,5.10
2022-12-17T15:54:09.414Z,5.65
2022-12-17T15:59:40.426Z,5.20
2022-12-17T16:05:12.648Z,4.53
2022-12-17T16:10:43.515Z,4.88
2022-12-17T16:16:14.846Z,5.10
2022-12-17T16:21:47.175Z,5.45
2022-12-17T16:27:19.398Z,4.97
2022-12-17T16:32:50.822Z,5.68
2022-12-17T16:38:22.358Z,5.63
2022-12-17T16:43:53.490Z,5.85
2022-12-17T16:49:24.781Z,5.03
2022-12-17T16:54:55.699Z,5.45
2022-12-17T17:00:27.146Z,5.45
2022-12-17T17:06:02.963Z,5.32
2022-12-17T17:11:33.929Z,5.20
2022-12-17T17:17:04.985Z,5.40
2022-12-17T17:22:36.025Z,5.65
2022-12-17T17:28:07.435Z,4.78
2022-12-17T17:33:40.450Z,5.85
2022-12-17T17:39:11.661Z,5.53
2022-12-17T17:44:42.818Z,5.32
2022-12-17T17:50:14.058Z,5.25
2022-12-17T17:55:44.970Z,5.40
2022-12-17T18:01:22.288Z,5.80
2022-12-17T18:07:23.669Z,5.43
2022-12-17T18:13:03.388Z,5.63
2022-12-17T18:18:34.880Z,5.22
2022-12-17T18:24:10.337Z,5.22
2022-12-17T18:29:41.379Z,5.07
2022-12-17T18:35:12.826Z,4.47
2022-12-17T18:40:43.768Z,5.47
2022-12-17T18:46:18.019Z,6.25
2022-12-17T18:51:54.442Z,5.47
2022-12-17T18:57:25.304Z,4.88
2022-12-17T19:02:56.695Z,5.45
2022-12-17T19:08:27.918Z,5.25
2022-12-17T19:13:59.641Z,5.22
2022-12-17T19:19:30.793Z,5.55
2022-12-17T19:25:01.644Z,5.45
2022-12-17T19:30:33.025Z,5.82
2022-12-17T19:36:07.036Z,6.13
2022-12-17T19:41:38.506Z,5.82
2022-12-17T19:47:10.833Z,5.32
2022-12-17T19:52:41.841Z,5.13
2022-12-17T19:58:13.016Z,5.85
2022-12-17T20:03:46.314Z,5.78
2022-12-17T20:09:17.692Z,5.73
2022-12-17T20:14:48.895Z,5.93
2022-12-17T20:20:20.097Z,6.25
2022-12-17T20:26:10.371Z,6.90
2022-12-17T20:31:48.010Z,6.18
2022-12-17T20:37:21.579Z,7.30
2022-12-17T20:42:52.600Z,7.15
2022-12-17T20:48:24.151Z,6.15
2022-12-17T20:53:56.844Z,6.50
2022-12-17T20:59:27.933Z,6.75
2022-12-17T21:04:59.321Z,6.63
2022-12-17T21:10:30.365Z,6.78
2022-12-17T21:16:07.182Z,6.43
2022-12-17T21:21:39.361Z,6.97
2022-12-17T21:27:14.729Z,6.88
2022-12-17T21:32:46.547Z,7.22
2022-12-17T21:38:17.835Z,6.53
2022-12-17T21:43:57.426Z,7.15
2022-12-17T21:49:28.804Z,6.93
2022-12-17T21:55:00.753Z,7.38
2022-12-17T22:00:32.174Z,7.00
2022-12-17T22:06:08.814Z,7.97
2022-12-17T22:11:39.922Z,7.97
2022-12-17T22:17:11.226Z,6.97
2022-12-17T22:22:42.692Z,7.55
2022-12-17T22:28:14.083Z,7.03
2022-12-17T22:34:16.494Z,11.50
2022-12-17T22:44:33.364Z,11.98
2022-12-17T22:45:32.483Z,11.05
2022-12-17T22:51:21.066Z,12.20
2022-12-17T22:57:34.648Z,14.00
2022-12-17T23:02:54.745Z,12.43
2022-12-17T23:08:26.157Z,13.47
2022-12-17T23:13:57.814Z,12.32
2022-12-17T23:19:28.703Z,11.13
2022-12-17T23:24:59.563Z,11.57
2022-12-17T23:30:31.051Z,10.60
2022-12-17T23:36:07.457Z,10.10
2022-12-17T23:41:38.804Z,10.05
2022-12-17T23:47:10.152Z,9.95
2022-12-17T23:52:41.539Z,9.50
2022-12-17T23:58:12.961Z,8.98
